Time;durP1;ratioP1;P1;durP2;ratioP2;P2;SDS_P1;SDS_P2;PMS_P1;PMS_P2;Temp;Humidity;BMP_temperature;BMP_pressure;BME280_temperature;BME280_humidity;BME280_pressure;Samples;Min_cycle;Max_cycle;Signal;HPM_P1;HPM_P2
2021/10/17 00:02:23;;;;;;;24.38;13.90;;;9.30;99.90;;;;;;5055495;28;20231;-73
2021/10/17 00:04:50;;;;;;;21.25;13.70;;;9.20;99.90;;;;;;5055706;28;20298;-74
2021/10/17 00:07:17;;;;;;;18.58;12.60;;;9.20;99.90;;;;;;5055619;28;20207;-74
2021/10/17 00:09:44;;;;;;;19.63;12.65;;;9.30;99.90;;;;;;5055582;28;20254;-74
2021/10/17 00:12:12;;;;;;;19.67;14.13;;;9.30;99.90;;;;;;5055166;28;20206;-73
2021/10/17 00:14:39;;;;;;;20.30;13.70;;;9.20;99.90;;;;;;5055411;28;20210;-73
2021/10/17 00:17:08;;;;;;;21.02;13.85;;;9.20;99.90;;;;;;5055427;28;20207;-73
2021/10/17 00:19:35;;;;;;;21.10;14.05;;;9.10;99.90;;;;;;5055397;28;20314;-73
2021/10/17 00:22:03;;;;;;;18.67;12.55;;;9.20;99.90;;;;;;5054957;28;20249;-73
2021/10/17 00:24:30;;;;;;;20.67;13.05;;;9.20;99.90;;;;;;5053931;28;20302;-73
2021/10/17 00:26:57;;;;;;;23.45;14.15;;;9.20;99.90;;;;;;5055245;28;20561;-73
2021/10/17 00:29:24;;;;;;;20.63;13.30;;;9.20;99.90;;;;;;5054920;28;20230;-73
2021/10/17 00:31:51;;;;;;;22.33;14.32;;;9.20;99.90;;;;;;5055021;28;20199;-73
2021/10/17 00:34:19;;;;;;;21.50;14.25;;;9.20;99.90;;;;;;5055004;28;20200;-73
2021/10/17 00:36:47;;;;;;;19.45;12.70;;;9.20;99.90;;;;;;5055080;28;20200;-73
2021/10/17 00:39:14;;;;;;;25.10;13.88;;;9.20;99.90;;;;;;5054916;28;20255;-73
2021/10/17 00:41:42;;;;;;;23.17;13.77;;;9.10;99.90;;;;;;5054693;28;20234;-74
2021/10/17 00:44:08;;;;;;;22.58;13.63;;;9.00;99.90;;;;;;5054981;28;20660;-73
2021/10/17 00:46:35;;;;;;;21.42;14.40;;;8.90;99.90;;;;;;5054650;28;20294;-73
2021/10/17 00:49:02;;;;;;;22.17;14.02;;;8.70;99.90;;;;;;5054840;28;20258;-73
2021/10/17 00:51:30;;;;;;;21.38;14.55;;;8.60;99.90;;;;;;5054570;28;20282;-73
2021/10/17 00:53:57;;;;;;;22.83;14.68;;;8.50;99.90;;;;;;5054715;28;20568;-73
2021/10/17 00:56:24;;;;;;;19.25;12.45;;;8.40;99.90;;;;;;5055096;28;20209;-73
2021/10/17 00:58:51;;;;;;;21.70;14.65;;;8.50;99.90;;;;;;5054633;28;20318;-74
2021/10/17 01:01:18;;;;;;;21.85;13.38;;;8.50;99.90;;;;;;5054309;28;20309;-73
2021/10/17 01:03:44;;;;;;;20.60;14.75;;;8.60;99.90;;;;;;5054366;28;20213;-74
2021/10/17 01:06:13;;;;;;;23.15;15.32;;;8.70;99.90;;;;;;5054506;28;20514;-73
2021/10/17 01:08:42;;;;;;;20.67;12.80;;;8.80;99.90;;;;;;5054300;28;20254;-73
2021/10/17 01:11:09;;;;;;;24.52;13.38;;;8.90;99.90;;;;;;5053954;28;20204;-73
2021/10/17 01:13:37;;;;;;;18.98;13.35;;;8.90;99.90;;;;;;5054318;28;20553;-73
2021/10/17 01:16:04;;;;;;;23.48;14.50;;;9.00;99.90;;;;;;5054099;28;20215;-73
2021/10/17 01:18:32;;;;;;;19.38;13.68;;;9.10;99.90;;;;;;5053904;28;20262;-73
2021/10/17 01:21:01;;;;;;;21.02;13.02;;;9.10;99.90;;;;;;5054201;28;20210;-74
2021/10/17 01:23:28;;;;;;;22.63;13.50;;;9.00;99.90;;;;;;5054008;28;20698;-74
2021/10/17 01:25:55;;;;;;;20.25;13.35;;;9.00;99.90;;;;;;5053858;28;20233;-73
2021/10/17 01:28:22;;;;;;;19.17;13.27;;;9.00;99.90;;;;;;5053928;28;20230;-73
2021/10/17 01:30:49;;;;;;;21.38;14.02;;;8.90;99.90;;;;;;5054111;28;20204;-74
2021/10/17 01:33:17;;;;;;;17.75;12.85;;;8.80;99.90;;;;;;5053747;28;20654;-73
2021/10/17 01:35:43;;;;;;;18.92;13.13;;;8.70;99.90;;;;;;5053651;28;20234;-74
2021/10/17 01:38:11;;;;;;;19.75;12.95;;;8.70;99.90;;;;;;5053608;28;20224;-74
2021/10/17 01:40:39;;;;;;;19.52;14.40;;;8.80;99.90;;;;;;5053812;28;20211;-73
2021/10/17 01:43:06;;;;;;;23.17;14.10;;;8.70;99.90;;;;;;5053640;28;20229;-74
2021/10/17 01:45:33;;;;;;;20.15;14.07;;;8.50;99.90;;;;;;5053858;28;20564;-73
2021/10/17 01:48:00;;;;;;;21.88;14.10;;;8.50;99.90;;;;;;5053726;28;20224;-73
2021/10/17 01:50:27;;;;;;;23.15;13.95;;;8.40;99.90;;;;;;5053710;28;20210;-73
2021/10/17 01:52:54;;;;;;;19.58;13.68;;;8.30;99.90;;;;;;5053557;28;20202;-73
2021/10/17 01:55:22;;;;;;;25.50;14.02;;;8.20;99.90;;;;;;5053729;28;20230;-73
2021/10/17 01:57:49;;;;;;;23.42;13.90;;;8.10;99.90;;;;;;5053399;28;20735;-73
2021/10/17 02:00:16;;;;;;;19.58;13.43;;;8.20;99.90;;;;;;5053714;28;20203;-73
2021/10/17 02:02:43;;;;;;;25.17;14.57;;;8.30;99.90;;;;;;5053168;28;20223;-74
2021/10/17 02:05:10;;;;;;;20.13;13.07;;;8.40;99.90;;;;;;5053448;28;20298;-73
2021/10/17 02:07:37;;;;;;;22.17;14.82;;;8.50;99.90;;;;;;5053238;28;20203;-73
2021/10/17 02:10:05;;;;;;;26.65;15.13;;;8.40;99.90;;;;;;5053595;28;20294;-73
2021/10/17 02:12:34;;;;;;;28.08;15.27;;;8.40;99.90;;;;;;5053208;28;20199;-73
2021/10/17 02:15:04;;;;;;;20.45;13.10;;;8.30;99.90;;;;;;5053487;28;20569;-73
2021/10/17 02:17:31;;;;;;;21.15;14.43;;;8.30;99.90;;;;;;5053307;28;20253;-73
2021/10/17 02:19:58;;;;;;;22.00;14.07;;;8.30;99.90;;;;;;5053485;28;20205;-74
2021/10/17 02:22:25;;;;;;;23.95;15.52;;;8.20;99.90;;;;;;5053123;28;20305;-74
2021/10/17 02:24:52;;;;;;;23.10;13.70;;;8.10;99.90;;;;;;5053274;28;20211;-74
2021/10/17 02:27:19;;;;;;;22.10;14.85;;;8.20;99.90;;;;;;5053267;28;20200;-74
2021/10/17 02:29:47;;;;;;;23.73;14.25;;;8.20;99.90;;;;;;5053317;28;20251;-74
2021/10/17 02:32:14;;;;;;;22.63;14.63;;;8.30;99.90;;;;;;5052974;28;20207;-74
2021/10/17 02:34:40;;;;;;;19.98;13.90;;;8.30;99.90;;;;;;5053028;28;20661;-74
2021/10/17 02:37:07;;;;;;;23.55;13.82;;;8.30;99.90;;;;;;5053249;28;20294;-73
2021/10/17 02:39:34;;;;;;;22.80;13.60;;;8.30;99.90;;;;;;5053234;28;20681;-74
2021/10/17 02:42:01;;;;;;;19.70;14.23;;;8.30;99.90;;;;;;5052814;28;20238;-74
2021/10/17 02:44:28;;;;;;;23.00;13.80;;;8.30;99.90;;;;;;5053172;28;20290;-74
2021/10/17 02:46:57;;;;;;;21.42;14.23;;;8.20;99.90;;;;;;5052867;28;20204;-74
2021/10/17 02:49:24;;;;;;;24.75;14.25;;;8.20;99.90;;;;;;5056447;28;20259;-74
2021/10/17 02:51:51;;;;;;;21.92;12.80;;;8.10;99.90;;;;;;5056614;28;20691;-73
2021/10/17 02:54:18;;;;;;;21.50;13.40;;;8.30;99.90;;;;;;5056904;28;20233;-74
2021/10/17 02:56:45;;;;;;;19.23;13.52;;;8.30;99.90;;;;;;5056952;28;20205;-74
2021/10/17 02:59:12;;;;;;;22.60;12.57;;;8.30;99.90;;;;;;5056588;28;20769;-74
2021/10/17 03:01:39;;;;;;;23.27;13.20;;;8.20;99.90;;;;;;5056698;28;20199;-74
2021/10/17 03:04:07;;;;;;;22.05;13.75;;;8.30;99.90;;;;;;5056724;28;20314;-73
2021/10/17 03:06:34;;;;;;;20.92;13.55;;;8.30;99.90;;;;;;5056683;28;20207;-74
2021/10/17 03:09:01;;;;;;;25.55;13.02;;;8.20;99.90;;;;;;5056518;28;20315;-73
2021/10/17 03:11:28;;;;;;;22.55;13.10;;;8.10;99.90;;;;;;5056584;28;20207;-74
2021/10/17 03:13:54;;;;;;;20.40;13.73;;;8.20;99.90;;;;;;5056450;28;20200;-74
2021/10/17 03:16:21;;;;;;;20.17;13.60;;;8.30;99.90;;;;;;5056503;28;20208;-74
2021/10/17 03:18:48;;;;;;;25.27;14.68;;;8.30;99.90;;;;;;5056248;28;20286;-73
2021/10/17 03:21:16;;;;;;;22.02;14.07;;;8.20;99.90;;;;;;5056327;28;20294;-74
2021/10/17 03:23:43;;;;;;;19.88;13.90;;;8.30;99.90;;;;;;5056227;28;20319;-74
2021/10/17 03:26:10;;;;;;;20.08;12.98;;;8.30;99.90;;;;;;5056345;28;20203;-74
2021/10/17 03:28:37;;;;;;;22.23;13.23;;;8.30;99.90;;;;;;5056262;28;20223;-74
2021/10/17 03:31:06;;;;;;;27.75;15.02;;;8.30;99.90;;;;;;5056105;28;20204;-74
2021/10/17 03:33:33;;;;;;;25.95;14.15;;;8.30;99.90;;;;;;5056301;28;20195;-74
2021/10/17 03:36:00;;;;;;;22.40;13.02;;;8.30;99.90;;;;;;5056561;28;20217;-74
2021/10/17 03:38:29;;;;;;;21.80;14.25;;;8.30;99.90;;;;;;5056170;28;20604;-74
2021/10/17 03:40:55;;;;;;;20.98;13.90;;;8.30;99.90;;;;;;5055872;28;20740;-74
2021/10/17 03:43:22;;;;;;;20.80;13.40;;;8.50;99.90;;;;;;5055895;28;20223;-73
2021/10/17 03:45:49;;;;;;;23.23;13.60;;;8.60;99.90;;;;;;5056420;28;20200;-74
2021/10/17 03:48:16;;;;;;;17.50;12.57;;;8.70;99.90;;;;;;5055873;28;20331;-74
2021/10/17 03:50:43;;;;;;;17.80;12.07;;;8.70;99.90;;;;;;5056042;28;20207;-74
2021/10/17 03:53:11;;;;;;;21.17;13.10;;;8.70;99.90;;;;;;5055757;28;20627;-74
2021/10/17 03:55:41;;;;;;;20.00;13.38;;;8.70;99.90;;;;;;5055799;28;20598;-74
2021/10/17 03:58:08;;;;;;;23.10;12.77;;;8.60;99.90;;;;;;5055732;28;20251;-74
2021/10/17 04:00:34;;;;;;;20.27;12.77;;;8.50;99.90;;;;;;5055621;28;20218;-73
2021/10/17 04:03:01;;;;;;;18.70;12.95;;;8.40;99.90;;;;;;5055472;28;20229;-74
2021/10/17 04:05:28;;;;;;;21.63;13.10;;;8.40;99.90;;;;;;5055554;28;20208;-74
2021/10/17 04:07:55;;;;;;;20.70;12.80;;;8.50;99.90;;;;;;5055455;28;20309;-74
2021/10/17 04:10:22;;;;;;;22.00;12.80;;;8.60;99.90;;;;;;5055582;28;20290;-74
2021/10/17 04:12:50;;;;;;;21.95;13.57;;;8.60;99.90;;;;;;5055172;28;20238;-74
2021/10/17 04:15:17;;;;;;;16.98;13.05;;;8.50;99.90;;;;;;5055531;28;20341;-73
2021/10/17 04:17:44;;;;;;;20.63;13.70;;;8.40;99.90;;;;;;5055222;28;20773;-74
2021/10/17 04:20:12;;;;;;;20.23;13.38;;;8.40;99.90;;;;;;5055166;28;20298;-73
2021/10/17 04:22:40;;;;;;;18.45;12.70;;;8.40;99.90;;;;;;5054886;28;20314;-73
2021/10/17 04:25:08;;;;;;;22.02;13.43;;;8.30;99.90;;;;;;5055078;28;20207;-74
2021/10/17 04:27:35;;;;;;;24.60;14.23;;;8.10;99.90;;;;;;5055164;28;20203;-74
2021/10/17 04:30:04;;;;;;;24.30;13.30;;;8.20;99.90;;;;;;5055293;28;20203;-74
2021/10/17 04:32:31;;;;;;;17.58;12.98;;;8.30;99.90;;;;;;5054860;28;20296;-73
2021/10/17 04:34:58;;;;;;;22.02;13.45;;;8.30;99.90;;;;;;5055004;28;20210;-74
2021/10/17 04:37:25;;;;;;;24.50;15.15;;;8.40;99.90;;;;;;5054796;28;20207;-73
2021/10/17 04:39:51;;;;;;;22.58;13.30;;;8.30;99.90;;;;;;5054990;28;20310;-74
2021/10/17 04:42:18;;;;;;;21.65;13.65;;;8.30;99.90;;;;;;5054673;28;20658;-74
2021/10/17 04:44:45;;;;;;;24.60;14.63;;;8.30;99.90;;;;;;5054921;28;20203;-74
2021/10/17 04:47:13;;;;;;;23.38;13.27;;;8.40;99.90;;;;;;5055012;28;20208;-74
2021/10/17 04:49:40;;;;;;;18.38;11.43;;;8.50;99.90;;;;;;5054987;28;20219;-74
2021/10/17 04:52:07;;;;;;;21.95;14.15;;;8.60;99.90;;;;;;5054395;28;20203;-74
2021/10/17 04:54:34;;;;;;;22.35;14.05;;;8.60;99.90;;;;;;5054744;28;20302;-74
2021/10/17 04:57:00;;;;;;;23.30;13.55;;;8.50;99.90;;;;;;5054709;28;20231;-74
2021/10/17 04:59:27;;;;;;;24.27;14.48;;;8.30;99.90;;;;;;5054620;28;20227;-74
2021/10/17 05:01:54;;;;;;;21.20;13.23;;;8.30;99.90;;;;;;5054251;28;20203;-74
2021/10/17 05:04:22;;;;;;;18.13;11.93;;;8.20;99.90;;;;;;5054458;28;20317;-74
2021/10/17 05:06:49;;;;;;;19.95;12.65;;;8.20;99.90;;;;;;5054280;28;20208;-73
2021/10/17 05:09:16;;;;;;;22.80;13.65;;;8.20;99.90;;;;;;5054473;28;20231;-74
2021/10/17 05:11:42;;;;;;;19.77;13.38;;;8.10;99.90;;;;;;5053494;28;20298;-73
2021/10/17 05:14:09;;;;;;;19.38;13.10;;;8.20;99.90;;;;;;5054332;28;20290;-74
2021/10/17 05:16:36;;;;;;;21.60;12.88;;;8.10;99.90;;;;;;5054288;28;20210;-74
2021/10/17 05:19:03;;;;;;;18.80;12.82;;;8.10;99.90;;;;;;5054242;28;20230;-74
2021/10/17 05:21:31;;;;;;;21.83;12.85;;;8.10;99.90;;;;;;5054024;28;20310;-74
2021/10/17 05:23:58;;;;;;;20.90;12.70;;;8.00;99.90;;;;;;5053836;28;20318;-74
2021/10/17 05:26:25;;;;;;;23.77;13.35;;;8.00;99.90;;;;;;5054467;28;20298;-74
2021/10/17 05:28:52;;;;;;;20.60;14.00;;;7.90;99.90;;;;;;5053897;28;20228;-74
2021/10/17 05:31:19;;;;;;;22.10;13.43;;;7.90;99.90;;;;;;5053925;28;20203;-74
2021/10/17 05:33:48;;;;;;;21.40;13.20;;;7.80;99.90;;;;;;5054043;28;20205;-74
2021/10/17 05:36:15;;;;;;;18.85;13.05;;;7.80;99.90;;;;;;5053966;28;20238;-74
2021/10/17 05:38:43;;;;;;;21.58;12.40;;;7.70;99.90;;;;;;5053806;28;20237;-74
2021/10/17 05:41:10;;;;;;;16.17;11.60;;;7.60;99.90;;;;;;5053830;28;20294;-74
2021/10/17 05:43:37;;;;;;;17.73;12.00;;;7.60;99.90;;;;;;5053756;28;20715;-74
2021/10/17 05:46:04;;;;;;;19.15;11.95;;;7.50;99.90;;;;;;5053575;28;20203;-74
2021/10/17 05:48:31;;;;;;;17.60;12.88;;;7.50;99.90;;;;;;5053792;28;20314;-73
2021/10/17 05:50:58;;;;;;;15.73;11.50;;;7.60;99.90;;;;;;5053807;28;20625;-73
2021/10/17 05:53:25;;;;;;;18.10;11.50;;;7.50;99.90;;;;;;5053562;28;20757;-74
2021/10/17 05:55:53;;;;;;;19.35;12.00;;;7.50;99.90;;;;;;5053928;28;20203;-74
2021/10/17 05:58:20;;;;;;;15.05;10.93;;;7.40;99.90;;;;;;5053573;28;20314;-73
2021/10/17 06:00:47;;;;;;;18.35;11.57;;;7.30;99.90;;;;;;5053379;28;20717;-73
2021/10/17 06:03:14;;;;;;;14.20;10.27;;;7.20;99.90;;;;;;5053361;28;20227;-73
2021/10/17 06:05:40;;;;;;;19.50;10.52;;;7.10;99.90;;;;;;5053578;28;20210;-74
2021/10/17 06:08:07;;;;;;;13.20;10.25;;;7.10;99.90;;;;;;5053411;28;20227;-73
2021/10/17 06:10:34;;;;;;;19.45;11.13;;;7.00;99.90;;;;;;5053571;28;20299;-73
2021/10/17 06:13:02;;;;;;;13.93;10.10;;;7.00;99.90;;;;;;5053059;28;20579;-74
2021/10/17 06:15:29;;;;;;;15.25;10.50;;;7.10;99.90;;;;;;5053379;28;20281;-74
2021/10/17 06:17:56;;;;;;;13.10;10.43;;;7.10;99.90;;;;;;5053405;28;20231;-73
2021/10/17 06:20:23;;;;;;;18.52;11.07;;;7.10;99.90;;;;;;5053497;28;20207;-74
2021/10/17 06:22:49;;;;;;;16.48;10.93;;;7.20;99.90;;;;;;5054072;28;20609;-73
2021/10/17 06:25:16;;;;;;;16.13;10.40;;;7.20;99.90;;;;;;5057166;28;20265;-74
2021/10/17 06:27:43;;;;;;;19.75;11.20;;;7.20;99.90;;;;;;5057384;28;20202;-74
2021/10/17 06:30:12;;;;;;;17.52;11.32;;;7.20;99.90;;;;;;5057251;28;20203;-74
2021/10/17 06:32:38;;;;;;;16.02;10.63;;;7.20;99.90;;;;;;5057232;28;20571;-73
2021/10/17 06:35:06;;;;;;;16.85;10.95;;;7.20;99.90;;;;;;5057332;28;20203;-74
2021/10/17 06:37:33;;;;;;;17.08;10.48;;;7.20;99.90;;;;;;5057482;28;20207;-74
2021/10/17 06:39:59;;;;;;;15.35;10.40;;;7.30;99.90;;;;;;5057287;28;20290;-74
2021/10/17 06:42:26;;;;;;;15.55;10.18;;;7.40;99.90;;;;;;5056828;28;20209;-73
2021/10/17 06:44:53;;;;;;;19.02;11.68;;;7.50;99.90;;;;;;5057044;28;20314;-73
2021/10/17 06:47:21;;;;;;;15.35;11.05;;;7.60;99.90;;;;;;5056989;28;20207;-73
2021/10/17 06:49:48;;;;;;;16.45;10.80;;;7.70;99.90;;;;;;5057102;28;20223;-74
2021/10/17 06:52:15;;;;;;;17.77;11.25;;;7.80;99.90;;;;;;5056911;28;20294;-74
2021/10/17 06:54:42;;;;;;;16.88;11.07;;;7.90;99.90;;;;;;5056972;28;20211;-74
2021/10/17 06:57:09;;;;;;;15.95;10.65;;;7.80;99.90;;;;;;5056959;28;20199;-73
2021/10/17 06:59:35;;;;;;;15.93;10.50;;;7.80;99.90;;;;;;5056929;28;20230;-74
2021/10/17 07:02:02;;;;;;;18.92;12.25;;;7.80;99.90;;;;;;5056654;28;20203;-74
2021/10/17 07:04:30;;;;;;;16.75;10.73;;;7.80;99.90;;;;;;5056632;28;20310;-74
2021/10/17 07:06:57;;;;;;;14.52;10.48;;;7.90;99.90;;;;;;5056740;28;20299;-74
2021/10/17 07:09:24;;;;;;;16.33;10.70;;;8.00;99.90;;;;;;5056740;28;20230;-73
2021/10/17 07:11:52;;;;;;;18.08;11.95;;;8.00;99.90;;;;;;5056553;28;20628;-73
2021/10/17 07:14:19;;;;;;;17.98;11.98;;;8.20;99.90;;;;;;5056929;28;20203;-74
2021/10/17 07:16:46;;;;;;;20.65;11.50;;;8.30;99.90;;;;;;5056638;28;20290;-74
2021/10/17 07:19:12;;;;;;;17.77;11.48;;;8.40;99.90;;;;;;5056242;28;20223;-73
2021/10/17 07:21:41;;;;;;;16.10;11.55;;;8.50;99.90;;;;;;5056534;28;20200;-74
2021/10/17 07:24:08;;;;;;;18.85;12.35;;;8.50;99.90;;;;;;5056247;28;20314;-74
2021/10/17 07:26:34;;;;;;;17.40;11.40;;;8.60;99.90;;;;;;5056471;28;20290;-74
2021/10/17 07:29:01;;;;;;;17.25;10.52;;;8.70;99.90;;;;;;5056423;28;20314;-74
2021/10/17 07:31:28;;;;;;;14.40;10.50;;;8.80;99.90;;;;;;5055878;28;20205;-74
2021/10/17 07:33:55;;;;;;;17.33;11.30;;;8.80;99.90;;;;;;5055602;28;20210;-74
2021/10/17 07:36:22;;;;;;;17.52;12.85;;;8.80;99.90;;;;;;5055952;28;20297;-74
2021/10/17 07:38:50;;;;;;;19.58;12.25;;;8.90;99.90;;;;;;5056209;28;20223;-74
2021/10/17 07:41:17;;;;;;;15.38;10.48;;;8.70;99.90;;;;;;5056271;28;20299;-74
2021/10/17 07:43:43;;;;;;;16.08;11.52;;;8.70;99.90;;;;;;5056055;28;20422;-74
2021/10/17 07:46:10;;;;;;;17.17;12.38;;;8.70;99.90;;;;;;5056074;28;20206;-74
2021/10/17 07:48:38;;;;;;;17.52;11.75;;;8.80;99.90;;;;;;5055756;28;20234;-74
2021/10/17 07:51:05;;;;;;;20.33;11.48;;;9.00;99.90;;;;;;5055796;28;20207;-74
2021/10/17 07:53:32;;;;;;;18.83;11.88;;;9.10;99.90;;;;;;5055713;28;20294;-73
2021/10/17 07:56:01;;;;;;;21.23;12.50;;;9.10;99.90;;;;;;5055906;28;20203;-74
2021/10/17 07:58:28;;;;;;;17.58;10.65;;;9.20;99.90;;;;;;5055761;28;20318;-74
2021/10/17 08:00:55;;;;;;;16.65;10.68;;;9.20;99.90;;;;;;5055885;28;20298;-74
2021/10/17 08:03:22;;;;;;;18.13;12.10;;;9.30;99.90;;;;;;5055539;28;20293;-74
2021/10/17 08:05:49;;;;;;;17.48;11.77;;;9.40;99.90;;;;;;5055536;28;20291;-74
2021/10/17 08:08:15;;;;;;;17.67;11.65;;;9.50;99.90;;;;;;5055603;28;20326;-74
2021/10/17 08:10:42;;;;;;;16.98;10.65;;;9.60;99.90;;;;;;5055913;28;20298;-74
2021/10/17 08:13:10;;;;;;;13.77;10.65;;;9.40;99.90;;;;;;5055556;28;20298;-74
2021/10/17 08:15:37;;;;;;;18.13;11.00;;;9.50;99.90;;;;;;5055895;28;20291;-74
2021/10/17 08:18:04;;;;;;;14.45;10.70;;;9.70;99.90;;;;;;5055937;28;20223;-74
2021/10/17 08:20:31;;;;;;;16.42;10.82;;;9.80;99.90;;;;;;5055813;28;20632;-74
2021/10/17 08:22:58;;;;;;;16.42;10.55;;;9.80;99.90;;;;;;5055293;28;20657;-74
2021/10/17 08:25:25;;;;;;;17.73;10.35;;;9.80;99.90;;;;;;5055592;28;20389;-74
2021/10/17 08:27:51;;;;;;;16.10;11.48;;;9.90;99.90;;;;;;5056130;28;20219;-74
2021/10/17 08:30:20;;;;;;;17.42;10.50;;;10.00;99.90;;;;;;5055982;28;20290;-74
2021/10/17 08:32:46;;;;;;;15.63;10.65;;;9.90;99.90;;;;;;5055644;28;20294;-74
2021/10/17 08:35:13;;;;;;;17.88;10.95;;;10.00;99.90;;;;;;5055563;28;20294;-74
2021/10/17 08:37:40;;;;;;;15.75;10.40;;;10.00;99.90;;;;;;5055574;28;20299;-74
2021/10/17 08:40:09;;;;;;;16.98;10.98;;;10.00;99.90;;;;;;5055561;28;20207;-74
2021/10/17 08:42:36;;;;;;;16.70;10.68;;;9.90;99.90;;;;;;5055215;28;20684;-73
2021/10/17 08:45:04;;;;;;;18.25;11.13;;;9.90;99.90;;;;;;5054585;28;20220;-74
2021/10/17 08:47:34;;;;;;;15.25;9.73;;;9.90;99.90;;;;;;5054761;28;20311;-74
2021/10/17 08:50:01;;;;;;;18.50;11.25;;;9.70;99.90;;;;;;5054782;28;20200;-74
2021/10/17 08:52:28;;;;;;;18.60;10.68;;;9.60;99.90;;;;;;5054750;28;20231;-74
2021/10/17 08:54:55;;;;;;;15.93;11.05;;;9.60;99.90;;;;;;5055227;28;20199;-74
2021/10/17 08:57:22;;;;;;;19.48;10.93;;;9.70;99.90;;;;;;5055059;28;20203;-74
2021/10/17 08:59:51;;;;;;;16.25;10.77;;;9.80;99.90;;;;;;5055047;28;20250;-74
2021/10/17 09:02:19;;;;;;;16.10;10.52;;;9.90;99.90;;;;;;5054908;28;20229;-73
2021/10/17 09:04:58;;;;;;;17.95;11.63;;;10.00;99.90;;;;;;5054922;28;20224;-74
2021/10/17 09:07:25;;;;;;;17.02;11.60;;;9.90;99.90;;;;;;5054978;28;20211;-74
2021/10/17 09:10:07;;;;;;;15.73;10.88;;;10.10;99.90;;;;;;5054815;28;20235;-73
2021/10/17 09:12:35;;;;;;;15.35;10.45;;;10.20;99.90;;;;;;5054841;28;20566;-74
2021/10/17 09:15:22;;;;;;;19.60;12.27;;;10.20;99.90;;;;;;5054689;28;20202;-74
2021/10/17 09:18:09;;;;;;;18.60;12.07;;;10.40;99.90;;;;;;5054767;28;20204;-74
2021/10/17 09:20:51;;;;;;;16.70;10.95;;;10.40;99.90;;;;;;5054929;28;20208;-74
2021/10/17 09:23:31;;;;;;;16.80;11.30;;;10.40;99.90;;;;;;5054191;28;20568;-74
2021/10/17 09:26:00;;;;;;;17.60;11.85;;;10.60;99.90;;;;;;5054457;28;20223;-74
2021/10/17 09:28:29;;;;;;;19.15;12.70;;;10.70;99.90;;;;;;5054528;28;20228;-74
2021/10/17 09:30:58;;;;;;;15.55;11.25;;;10.70;99.90;;;;;;5054440;28;20623;-74
2021/10/17 09:33:25;;;;;;;16.50;11.40;;;10.80;99.90;;;;;;5054105;28;20323;-75
2021/10/17 09:35:54;;;;;;;16.42;11.15;;;10.90;99.90;;;;;;5054035;28;20207;-74
2021/10/17 09:38:24;;;;;;;16.98;11.15;;;11.00;99.90;;;;;;5053834;28;20231;-74
2021/10/17 09:40:51;;;;;;;19.15;11.80;;;11.20;99.90;;;;;;5054090;28;20297;-75
2021/10/17 09:43:23;;;;;;;16.13;11.25;;;11.20;99.90;;;;;;5053755;28;20622;-74
2021/10/17 09:45:50;;;;;;;19.00;11.70;;;11.10;99.90;;;;;;5053854;28;20265;-74
2021/10/17 09:48:29;;;;;;;19.50;11.95;;;11.10;99.90;;;;;;5053990;28;20219;-74
2021/10/17 09:51:02;;;;;;;16.92;11.13;;;11.20;99.90;;;;;;5053828;28;20192;-75
2021/10/17 09:53:42;;;;;;;16.35;11.23;;;11.30;99.90;;;;;;5053734;28;20298;-74
2021/10/17 09:56:10;;;;;;;18.58;11.20;;;11.40;99.90;;;;;;5054033;28;20207;-75
2021/10/17 09:58:36;;;;;;;20.00;12.75;;;11.40;99.90;;;;;;5053754;28;20588;-74
2021/10/17 10:01:04;;;;;;;16.33;11.80;;;11.20;99.90;;;;;;5053613;28;20199;-74
2021/10/17 10:03:32;;;;;;;18.42;11.50;;;11.20;99.90;;;;;;5053605;28;20565;-74
2021/10/17 10:06:01;;;;;;;17.50;11.55;;;11.10;99.90;;;;;;5053459;28;20227;-74
2021/10/17 10:08:30;;;;;;;16.33;10.13;;;11.20;99.90;;;;;;5053549;28;20227;-74
2021/10/17 10:10:57;;;;;;;17.98;10.95;;;11.30;99.90;;;;;;5053516;28;20210;-74
2021/10/17 10:13:26;;;;;;;17.13;11.10;;;11.10;99.90;;;;;;5053456;28;20257;-75
2021/10/17 10:15:53;;;;;;;16.98;11.05;;;11.00;99.90;;;;;;5053435;28;20230;-75
2021/10/17 10:18:23;;;;;;;18.55;10.88;;;11.10;99.90;;;;;;5053003;28;20309;-74
2021/10/17 10:20:50;;;;;;;21.45;11.77;;;11.30;99.90;;;;;;5053364;28;20198;-74
2021/10/17 10:23:19;;;;;;;19.40;10.75;;;11.40;99.90;;;;;;5053090;28;20649;-75
2021/10/17 10:25:50;;;;;;;20.42;11.98;;;11.30;99.90;;;;;;5053106;28;20640;-75
2021/10/17 10:28:18;;;;;;;19.80;11.18;;;11.10;99.90;;;;;;5053321;28;20219;-74
2021/10/17 10:30:45;;;;;;;16.75;10.10;;;10.90;99.90;;;;;;5053082;28;20239;-74
2021/10/17 10:33:18;;;;;;;15.93;10.30;;;10.80;99.90;;;;;;5053113;28;20298;-74
2021/10/17 10:36:12;;;;;;;16.35;11.00;;;11.00;99.90;;;;;;5053334;28;20290;-74
2021/10/17 10:39:17;;;;;;;19.80;12.48;;;10.80;99.90;;;;;;5053009;28;20223;-75
2021/10/17 10:41:51;;;;;;;18.30;11.10;;;10.40;99.90;;;;;;5053163;28;20206;-74
2021/10/17 10:44:19;;;;;;;20.00;11.73;;;10.10;99.90;;;;;;5053156;28;20547;-74
2021/10/17 10:46:47;;;;;;;18.30;11.73;;;10.20;99.90;;;;;;5053070;28;20583;-74
2021/10/17 10:49:38;;;;;;;19.10;11.63;;;10.20;99.90;;;;;;5053241;28;20223;-74
2021/10/17 10:52:31;;;;;;;18.42;11.50;;;10.60;99.90;;;;;;5052867;28;20204;-74
2021/10/17 10:54:59;;;;;;;17.80;11.45;;;10.90;99.90;;;;;;5052778;28;20199;-75
2021/10/17 10:57:29;;;;;;;18.77;12.45;;;11.10;99.90;;;;;;5053082;28;20214;-75
2021/10/17 10:59:59;;;;;;;21.42;13.07;;;11.40;99.90;;;;;;5053223;28;20191;-74
2021/10/17 11:02:26;;;;;;;22.33;13.35;;;11.60;99.90;;;;;;5052829;28;20211;-75
2021/10/17 11:05:14;;;;;;;21.02;12.45;;;11.70;99.90;;;;;;5052989;28;20318;-74
2021/10/17 11:07:44;;;;;;;20.58;14.02;;;11.80;99.90;;;;;;5053321;28;20265;-75
2021/10/17 11:10:42;;;;;;;18.63;12.18;;;11.70;99.90;;;;;;5056315;28;20199;-74
2021/10/17 11:13:25;;;;;;;21.02;14.13;;;11.60;99.90;;;;;;5056384;28;20235;-75
2021/10/17 11:15:52;;;;;;;23.48;12.75;;;11.60;99.90;;;;;;5056727;28;20217;-75
2021/10/17 11:18:19;;;;;;;19.00;12.52;;;11.60;99.90;;;;;;5056555;28;20224;-75
2021/10/17 11:20:48;;;;;;;19.63;12.25;;;11.50;99.90;;;;;;5056827;28;20584;-74
2021/10/17 11:23:18;;;;;;;21.25;13.10;;;11.60;99.90;;;;;;5056483;28;20623;-74
2021/10/17 11:25:52;;;;;;;19.02;12.55;;;11.40;99.90;;;;;;5056144;28;20577;-74
2021/10/17 11:28:21;;;;;;;23.25;13.40;;;11.10;99.90;;;;;;5056340;28;20697;-75
2021/10/17 11:30:47;;;;;;;23.30;13.13;;;11.00;99.90;;;;;;5056182;28;20294;-75
2021/10/17 11:33:19;;;;;;;20.63;12.30;;;11.10;99.90;;;;;;5056274;28;20264;-75
2021/10/17 11:35:47;;;;;;;15.43;10.00;;;11.20;99.90;;;;;;5056345;28;20285;-75
2021/10/17 11:38:15;;;;;;;19.73;11.38;;;11.50;99.90;;;;;;5056363;28;20253;-75
2021/10/17 11:40:43;;;;;;;20.10;11.95;;;11.70;99.90;;;;;;5056485;28;20205;-75
2021/10/17 11:43:11;;;;;;;18.10;12.30;;;11.70;99.90;;;;;;5056112;28;20203;-75
2021/10/17 11:45:42;;;;;;;19.45;11.27;;;11.70;99.90;;;;;;5056238;28;20232;-75
2021/10/17 11:48:12;;;;;;;16.00;11.50;;;11.90;99.90;;;;;;5056066;28;20230;-75
2021/10/17 11:50:40;;;;;;;19.67;12.00;;;12.00;99.90;;;;;;5055808;28;20279;-75
2021/10/17 11:53:09;;;;;;;16.67;11.40;;;11.80;99.90;;;;;;5055682;28;20737;-75
2021/10/17 11:55:39;;;;;;;15.30;10.57;;;11.90;99.90;;;;;;5056028;28;20231;-75
2021/10/17 11:58:12;;;;;;;18.50;12.25;;;11.60;99.90;;;;;;5055760;28;20234;-75
2021/10/17 12:00:41;;;;;;;20.02;12.45;;;11.80;99.90;;;;;;5056031;28;20189;-75
2021/10/17 12:03:08;;;;;;;20.40;12.13;;;11.80;99.90;;;;;;5055470;28;20203;-75
2021/10/17 12:05:36;;;;;;;17.02;10.77;;;12.00;99.90;;;;;;5055871;28;20230;-75
2021/10/17 12:08:03;;;;;;;17.70;11.65;;;12.00;99.90;;;;;;5055787;28;20269;-74
2021/10/17 12:10:32;;;;;;;19.25;11.98;;;12.20;99.90;;;;;;5055939;28;20199;-75
2021/10/17 12:13:01;;;;;;;17.65;11.13;;;12.30;99.90;;;;;;5055475;28;20200;-75
2021/10/17 12:15:28;;;;;;;18.48;11.48;;;12.30;99.90;;;;;;5055583;28;20306;-74
2021/10/17 12:18:01;;;;;;;18.75;12.25;;;12.40;99.90;;;;;;5055307;28;20224;-75
2021/10/17 12:20:31;;;;;;;19.40;12.23;;;12.40;99.90;;;;;;5055553;28;20187;-75
2021/10/17 12:22:59;;;;;;;19.48;11.25;;;12.10;99.90;;;;;;5055402;28;20207;-74
2021/10/17 12:25:26;;;;;;;18.38;12.27;;;11.90;99.90;;;;;;5055686;28;20227;-75
2021/10/17 12:27:53;;;;;;;23.25;15.50;;;11.80;99.90;;;;;;5055419;28;20658;-75
2021/10/17 12:30:24;;;;;;;19.30;12.55;;;11.70;99.90;;;;;;5055379;28;20209;-75
2021/10/17 12:32:54;;;;;;;21.80;12.65;;;11.60;99.90;;;;;;5055611;28;20233;-74
2021/10/17 12:35:30;;;;;;;20.08;14.40;;;11.60;99.90;;;;;;5055318;28;20290;-75
2021/10/17 12:38:05;;;;;;;21.25;12.40;;;11.90;99.90;;;;;;5055170;28;20257;-75
2021/10/17 12:40:32;;;;;;;17.73;12.50;;;12.10;99.90;;;;;;5055156;28;20531;-75